This is the latest recevied weather packets stored in our database for station/object KI4NG. If no packets are shown the sender has not sent any weather packets the latest 10 day(s).
| Time | Temp. | Humidity | Pressure | Rain* | Wind** | Luminosity | Snow |
|---|---|---|---|---|---|---|---|
| 1788464000 | 34.44° C | 56% | 1018.9 hPa | 0 mm | - | 232 W/m² | - |
| 1788463695 | 36.11° C | 52% | 1019.3 hPa | 0 mm | - | 729 W/m² | - |
| 1788463390 | 35.56° C | 54% | 1019.3 hPa | 0 mm | - | 731 W/m² | - |
| 1788463087 | 35.56° C | 53% | 1019.2 hPa | 0 mm | - | 759 W/m² | - |
| 1788462783 | 35.56° C | 55% | 1019.2 hPa | 0 mm | - | 779 W/m² | - |
| 1788462482 | 35° C | 55% | 1019.4 hPa | 0 mm | - | 701 W/m² | - |
| 1788462177 | 34.44° C | 55% | 1019.4 hPa | 0 mm | - | 746 W/m² | - |
| 1788461871 | 34.44° C | 55% | 1019.4 hPa | 0 mm | - | 752 W/m² | - |
| 1788461571 | 32.78° C | 60% | 1019.5 hPa | 0 mm | - | 732 W/m² | - |
| 1788461268 | 32.22° C | 63% | 1019.5 hPa | 0 mm | - | 187 W/m² | - |
| 1788460963 | 32.22° C | 65% | 1019.5 hPa | 0 mm | - | 197 W/m² | - |
| 1788460659 | 32.22° C | 64% | 1019.6 hPa | 0 mm | - | 165 W/m² | - |
| 1788460353 | 32.78° C | 61% | 1019.8 hPa | 0 mm | - | 143 W/m² | - |
| 1788460052 | 32.78° C | 61% | 1019.7 hPa | 0 mm | - | 175 W/m² | - |
| 1788459747 | 32.78° C | 60% | 1019.9 hPa | 0 mm | - | 198 W/m² | - |
| 1788459446 | 32.78° C | 58% | 1020 hPa | 0 mm | - | 207 W/m² | - |
| 1788459141 | 32.78° C | 62% | 1019.9 hPa | 0 mm | - | 204 W/m² | - |
| 1788458836 | 33.33° C | 60% | 1019.8 hPa | 0 mm | - | 197 W/m² | - |
| 1788458530 | 33.89° C | 59% | 1020.3 hPa | 0 mm | - | 253 W/m² | - |
| 1788458229 | 33.33° C | 61% | 1020.2 hPa | 0 mm | - | 540 W/m² | - |
| 1788457923 | 33.89° C | 61% | 1020.3 hPa | 0 mm | - | 256 W/m² | - |
| 1788457623 | 34.44° C | 58% | 1020.2 hPa | 0 mm | - | 194 W/m² | - |
| 1788457317 | 34.44° C | 57% | 1020.3 hPa | 0 mm | - | 701 W/m² | - |
| 1788457013 | 33.89° C | 59% | 1020.3 hPa | 0 mm | - | 796 W/m² | - |
| 1788456709 | 34.44° C | 56% | 1020.2 hPa | 0 mm | - | 238 W/m² | - |
* Rain latest hour (hover to see other rain measurements)
** Current wind speed in m/s (hover to see current wind gust speed)